Time;durP1;ratioP1;P1;durP2;ratioP2;P2;SDS_P1;SDS_P2;PMS_P1;PMS_P2;Temp;Humidity;BMP_temperature;BMP_pressure;BME280_temperature;BME280_humidity;BME280_pressure;Samples;Min_cycle;Max_cycle;Signal;HPM_P1;HPM_P2
2023/06/11 00:01:30;;;;;;;11.32;5.53;;;;;;;19.49;57.29;93348.56;4975503;28;20018;-71
2023/06/11 00:03:57;;;;;;;6.30;5.40;;;;;;;19.53;57.30;93360.13;4974039;28;20645;-72
2023/06/11 00:06:23;;;;;;;7.28;5.15;;;;;;;19.52;56.89;93339.69;4972751;28;20049;-71
2023/06/11 00:08:54;;;;;;;6.90;5.25;;;;;;;19.47;56.56;93336.59;4973348;28;20022;-73
2023/06/11 00:11:21;;;;;;;13.27;5.55;;;;;;;19.50;56.89;93347.41;4972019;28;20045;-72
2023/06/11 00:13:47;;;;;;;6.05;4.85;;;;;;;19.43;57.00;93341.19;4967041;28;20575;-72
2023/06/11 00:16:13;;;;;;;6.75;4.40;;;;;;;19.38;56.98;93336.16;4965405;28;20038;-72
2023/06/11 00:18:40;;;;;;;8.77;5.00;;;;;;;19.47;56.80;93348.16;4968822;28;20398;-73
2023/06/11 00:21:07;;;;;;;8.98;4.78;;;;;;;19.48;56.70;93340.84;4972748;28;20963;-72
2023/06/11 00:23:35;;;;;;;10.43;5.28;;;;;;;19.14;57.07;93310.63;4966124;28;20401;-72
2023/06/11 00:26:00;;;;;;;6.15;5.28;;;;;;;19.32;57.39;93344.59;4974185;28;20026;-73
2023/06/11 00:28:25;;;;;;;6.25;4.75;;;;;;;19.31;57.31;93342.31;4973126;28;20050;-72
2023/06/11 00:30:51;;;;;;;5.90;5.10;;;;;;;19.33;57.29;93350.78;4974441;28;20034;-72
2023/06/11 00:33:16;;;;;;;8.98;4.88;;;;;;;19.30;57.56;93363.09;4973163;28;20037;-72
2023/06/11 00:35:42;;;;;;;6.40;5.18;;;;;;;19.17;57.82;93347.59;4973392;28;20034;-72
2023/06/11 00:38:08;;;;;;;5.88;5.13;;;;;;;19.21;57.88;93359.22;4972820;28;20046;-73
2023/06/11 00:40:33;;;;;;;5.53;4.32;;;;;;;19.21;58.01;93364.59;4972906;28;20272;-72
2023/06/11 00:42:59;;;;;;;7.53;4.10;;;;;;;19.17;57.86;93359.16;4974155;28;20077;-72
2023/06/11 00:45:27;;;;;;;7.95;5.55;;;;;;;19.14;57.84;93359.16;4971174;28;20604;-71
2023/06/11 00:47:52;;;;;;;5.47;4.20;;;;;;;19.08;57.68;93350.66;4973956;28;20318;-72
2023/06/11 00:50:17;;;;;;;11.77;4.75;;;;;;;19.06;57.71;93357.59;4973275;28;20034;-72
2023/06/11 00:52:43;;;;;;;4.05;3.47;;;;;;;19.13;57.56;93360.31;4972546;28;20042;-72
2023/06/11 00:55:11;;;;;;;5.50;4.50;;;;;;;19.02;57.85;93356.81;4971380;28;20525;-72
2023/06/11 00:57:40;;;;;;;5.10;4.57;;;;;;;18.99;57.44;93346.75;4971400;28;20144;-72
2023/06/11 01:00:11;;;;;;;4.32;3.80;;;;;;;19.04;57.38;93351.78;4972643;28;20096;-72
2023/06/11 01:02:59;;;;;;;4.72;4.22;;;;;;;18.71;57.82;93320.44;4970042;28;20046;-73
2023/06/11 01:05:26;;;;;;;6.82;4.45;;;;;;;18.80;58.39;93353.19;4971909;28;20038;-71
2023/06/11 01:07:55;;;;;;;6.30;4.20;;;;;;;18.79;58.82;93354.34;4970201;28;20042;-72
2023/06/11 01:10:21;;;;;;;4.88;4.28;;;;;;;18.79;58.97;93357.81;4972769;28;20560;-72
2023/06/11 01:12:47;;;;;;;5.35;3.70;;;;;;;18.77;58.95;93351.25;4971732;28;20022;-72
2023/06/11 01:15:16;;;;;;;7.13;4.00;;;;;;;18.70;59.45;93353.88;4973570;28;20043;-71
2023/06/11 01:17:54;;;;;;;7.35;4.20;;;;;;;18.73;59.23;93356.59;4971474;28;20038;-72
2023/06/11 01:20:39;;;;;;;7.18;4.38;;;;;;;18.70;59.19;93356.56;4969820;28;20563;-72
2023/06/11 01:23:09;;;;;;;;;;;;;;;18.77;58.93;93362.78;4962592;28;20092;-71
2023/06/11 01:25:57;;;;;;;5.85;4.32;;;;;;;18.81;58.91;93363.59;4973945;28;19917;-72
2023/06/11 01:28:28;;;;;;;5.75;4.53;;;;;;;18.87;57.98;93354.00;4950720;28;20047;-71
2023/06/11 01:30:57;;;;;;;5.05;4.53;;;;;;;18.79;57.63;93359.72;4973634;28;20030;-72
2023/06/11 01:33:24;;;;;;;6.85;4.00;;;;;;;18.71;57.58;93342.75;4973303;28;20101;-72
2023/06/11 01:35:52;;;;;;;7.65;4.30;;;;;;;18.68;57.95;93343.47;4974994;28;20046;-71
2023/06/11 01:38:21;;;;;;;5.75;4.72;;;;;;;18.80;57.76;93351.28;4973417;28;20046;-72
2023/06/11 01:40:47;;;;;;;5.50;4.93;;;;;;;18.74;57.75;93347.38;4994398;28;20035;-72
2023/06/11 01:43:13;;;;;;;6.57;4.25;;;;;;;18.74;57.62;93343.91;4978132;28;20037;-71
2023/06/11 01:45:38;;;;;;;7.68;5.07;;;;;;;18.82;57.36;93359.75;4974919;28;20034;-71
2023/06/11 01:48:04;;;;;;;5.25;4.15;;;;;;;18.73;57.31;93340.44;4975234;28;20446;-72
2023/06/11 01:50:30;;;;;;;5.07;4.57;;;;;;;18.79;57.48;93352.41;4975448;28;20616;-72
2023/06/11 01:52:55;;;;;;;6.43;4.28;;;;;;;18.78;57.67;93364.34;4973834;28;20522;-71
2023/06/11 01:55:21;;;;;;;6.95;4.65;;;;;;;18.79;58.01;93360.50;4976841;28;20030;-71
2023/06/11 01:57:46;;;;;;;7.10;4.60;;;;;;;18.69;57.85;93355.78;4975404;28;20022;-74
2023/06/11 02:00:12;;;;;;;6.97;4.43;;;;;;;18.65;58.07;93348.81;4975420;28;20065;-72
2023/06/11 02:02:40;;;;;;;5.47;4.43;;;;;;;18.75;58.15;93358.94;4974691;28;20042;-72
2023/06/11 02:05:06;;;;;;;5.63;4.43;;;;;;;18.73;57.97;93364.69;4975199;28;20513;-72
2023/06/11 02:07:31;;;;;;;6.45;4.88;;;;;;;18.73;58.57;93372.75;4975461;28;20129;-72
2023/06/11 02:09:57;;;;;;;5.68;4.85;;;;;;;18.64;58.84;93345.34;4974320;28;20018;-72
2023/06/11 02:12:22;;;;;;;6.70;4.45;;;;;;;18.77;58.79;93364.72;4977243;28;20036;-72
2023/06/11 02:14:48;;;;;;;5.88;4.70;;;;;;;18.77;58.34;93357.41;4975037;28;20471;-72
2023/06/11 02:17:13;;;;;;;7.07;4.55;;;;;;;18.77;58.54;93362.78;4974813;28;20070;-72
2023/06/11 02:19:38;;;;;;;6.20;4.90;;;;;;;18.68;58.89;93353.44;4973851;28;20050;-72
2023/06/11 02:22:04;;;;;;;6.28;4.65;;;;;;;18.75;58.96;93364.31;4976730;28;20109;-71
2023/06/11 02:24:30;;;;;;;7.38;4.68;;;;;;;18.71;59.63;93353.53;4975614;28;20038;-71
2023/06/11 02:26:55;;;;;;;4.60;4.20;;;;;;;18.73;59.58;93355.81;4976751;28;20070;-72
2023/06/11 02:29:20;;;;;;;6.63;5.53;;;;;;;18.73;59.91;93366.59;4973412;28;20038;-72
2023/06/11 02:31:46;;;;;;;5.70;4.50;;;;;;;18.61;59.85;93351.50;4976732;28;20049;-72
2023/06/11 02:34:11;;;;;;;6.93;4.65;;;;;;;18.71;59.73;93369.69;4975186;28;20062;-72
2023/06/11 02:36:37;;;;;;;6.45;4.53;;;;;;;18.76;59.43;93371.25;4976726;28;20200;-72
2023/06/11 02:39:03;;;;;;;5.65;5.00;;;;;;;18.63;59.14;93349.19;4973404;28;20034;-71
2023/06/11 02:41:29;;;;;;;7.35;4.63;;;;;;;18.76;58.96;93371.25;4976777;28;20035;-71
2023/06/11 02:43:54;;;;;;;5.65;5.05;;;;;;;18.76;58.64;93368.56;4974717;28;20042;-72
2023/06/11 02:46:20;;;;;;;5.45;4.95;;;;;;;18.79;58.58;93365.09;4973650;28;20038;-72
2023/06/11 02:48:45;;;;;;;6.43;4.97;;;;;;;18.80;59.00;93364.75;4976037;28;20198;-72
2023/06/11 02:51:11;;;;;;;6.10;5.15;;;;;;;18.75;58.86;93354.31;4973732;28;20168;-72
2023/06/11 02:53:36;;;;;;;8.57;5.25;;;;;;;18.75;58.81;93354.31;4975231;28;20152;-72
2023/06/11 02:56:01;;;;;;;8.13;4.90;;;;;;;18.80;58.73;93361.28;4972565;28;20042;-72
2023/06/11 02:58:27;;;;;;;8.77;4.97;;;;;;;18.75;58.84;93362.41;4976515;28;20037;-72
2023/06/11 03:00:52;;;;;;;6.40;4.50;;;;;;;18.69;58.79;93350.41;4975005;28;20026;-72
2023/06/11 03:03:17;;;;;;;5.13;4.63;;;;;;;18.76;59.20;93361.25;4976191;28;20042;-72
2023/06/11 03:05:43;;;;;;;8.40;4.63;;;;;;;18.71;58.84;93347.38;4974539;28;20061;-72
2023/06/11 03:08:08;;;;;;;5.18;4.60;;;;;;;18.82;58.95;93361.69;4973921;28;20034;-72
2023/06/11 03:10:34;;;;;;;9.20;4.85;;;;;;;18.78;59.07;93364.34;4973847;28;20452;-73
2023/06/11 03:12:59;;;;;;;6.00;4.22;;;;;;;18.78;58.74;93371.63;4974708;28;20686;-72
2023/06/11 03:15:25;;;;;;;7.25;4.95;;;;;;;18.81;58.79;93369.00;4973472;28;20077;-71
2023/06/11 03:17:50;;;;;;;10.38;4.90;;;;;;;18.78;59.53;93371.63;4975699;28;20611;-71
2023/06/11 03:20:15;;;;;;;7.07;4.45;;;;;;;18.67;59.23;93363.47;4972354;28;20957;-72
2023/06/11 03:22:41;;;;;;;4.97;4.47;;;;;;;18.68;59.42;93369.63;4973792;28;20854;-72
2023/06/11 03:25:06;;;;;;;6.38;4.50;;;;;;;18.68;59.43;93367.69;4974991;28;20033;-71
2023/06/11 03:27:32;;;;;;;6.07;5.10;;;;;;;18.76;58.91;93380.13;4971235;28;20622;-73
2023/06/11 03:29:57;;;;;;;5.60;4.40;;;;;;;18.75;58.81;93375.09;4975539;28;20031;-72
2023/06/11 03:32:23;;;;;;;5.50;4.60;;;;;;;18.81;58.60;93387.84;4975323;28;20038;-72
2023/06/11 03:34:51;;;;;;;6.25;4.43;;;;;;;18.82;58.35;93380.53;4988326;28;20038;-73
2023/06/11 03:37:17;;;;;;;6.30;4.80;;;;;;;18.78;58.68;93388.56;4974886;28;20038;-73
2023/06/11 03:39:43;;;;;;;5.13;4.53;;;;;;;18.79;59.30;93395.53;4974141;28;20041;-72
2023/06/11 03:42:08;;;;;;;7.25;5.05;;;;;;;18.80;59.26;93399.75;4974433;28;20046;-72
2023/06/11 03:44:34;;;;;;;6.35;4.53;;;;;;;18.71;59.61;93396.63;4974001;28;20031;-71
2023/06/11 03:46:59;;;;;;;5.45;4.95;;;;;;;18.78;60.12;93401.28;4974196;28;20398;-72
2023/06/11 03:49:25;;;;;;;9.63;4.97;;;;;;;18.77;59.90;93383.59;4972857;28;20405;-71
2023/06/11 03:51:50;;;;;;;7.43;4.95;;;;;;;18.88;60.12;93405.97;4973654;28;20354;-74
2023/06/11 03:54:15;;;;;;;5.53;4.97;;;;;;;18.87;60.51;93404.44;4987169;28;20112;-73
2023/06/11 03:56:41;;;;;;;6.38;4.75;;;;;;;18.82;60.22;93386.69;4973666;28;20405;-71
2023/06/11 03:59:06;;;;;;;7.85;5.05;;;;;;;18.96;60.08;93404.88;4970361;28;20042;-72
2023/06/11 04:01:32;;;;;;;8.18;4.88;;;;;;;18.94;60.92;93403.69;4974990;28;20026;-71
2023/06/11 04:03:57;;;;;;;6.80;5.82;;;;;;;18.92;60.59;93395.22;4972020;28;20037;-73
2023/06/11 04:06:23;;;;;;;5.82;4.90;;;;;;;18.89;60.08;93384.03;4972376;28;20042;-71
2023/06/11 04:08:48;;;;;;;6.20;5.10;;;;;;;19.06;59.57;93403.41;4973263;28;20030;-73
2023/06/11 04:11:13;;;;;;;4.88;4.30;;;;;;;19.04;59.56;93397.59;4972882;28;20468;-72
2023/06/11 04:13:39;;;;;;;6.53;5.93;;;;;;;19.04;59.28;93381.44;4973348;28;20038;-71
2023/06/11 04:16:05;;;;;;;24.67;5.97;;;;;;;18.88;59.36;93363.63;4973414;28;20022;-71
2023/06/11 04:18:31;;;;;;;6.93;4.78;;;;;;;19.13;59.28;93395.34;4973642;28;20031;-73
2023/06/11 04:20:56;;;;;;;7.95;5.35;;;;;;;18.94;58.77;93352.50;4972085;28;20073;-73
2023/06/11 04:23:21;;;;;;;7.35;5.25;;;;;;;19.28;57.81;93389.66;4971269;28;20058;-72
2023/06/11 04:25:48;;;;;;;5.97;5.03;;;;;;;19.31;57.35;93386.19;4972609;28;20031;-71
2023/06/11 04:28:15;;;;;;;7.53;5.30;;;;;;;19.29;57.41;93387.72;4972613;28;20050;-71
2023/06/11 04:30:41;;;;;;;7.53;5.40;;;;;;;19.30;57.44;93397.38;4970178;28;20061;-71
2023/06/11 04:33:07;;;;;;;9.73;5.57;;;;;;;19.32;56.92;93390.44;4973158;28;20833;-72
2023/06/11 04:35:34;;;;;;;8.77;5.40;;;;;;;19.30;56.68;93387.38;4972193;28;20038;-73
2023/06/11 04:38:03;;;;;;;6.68;5.97;;;;;;;19.39;56.83;93388.94;4973092;28;20420;-71
2023/06/11 04:40:28;;;;;;;8.10;4.88;;;;;;;19.41;56.85;93387.38;4972595;28;20389;-71
2023/06/11 04:42:54;;;;;;;6.97;4.70;;;;;;;19.37;56.06;93378.53;4989189;28;20034;-71
2023/06/11 04:45:20;;;;;;;5.70;4.93;;;;;;;19.36;55.60;93378.91;4966109;28;20040;-72
2023/06/11 04:47:46;;;;;;;7.57;4.93;;;;;;;19.40;55.42;93379.69;4968903;28;20559;-73
2023/06/11 04:50:12;;;;;;;7.00;4.65;;;;;;;19.54;54.49;93380.56;4972044;28;20046;-73
2023/06/11 04:52:38;;;;;;;9.77;5.03;;;;;;;19.59;54.75;93371.31;4980648;28;21189;-72
2023/06/11 04:55:05;;;;;;;6.28;4.72;;;;;;;19.65;55.24;93384.06;4971390;28;20030;-71
2023/06/11 04:57:34;;;;;;;5.55;4.82;;;;;;;19.57;54.80;93387.88;4973192;28;20078;-73
2023/06/11 05:00:00;;;;;;;8.32;4.95;;;;;;;19.57;54.60;93382.50;4972194;28;20046;-73
2023/06/11 05:02:26;;;;;;;8.45;5.20;;;;;;;19.49;54.69;93370.13;4973434;28;20034;-73
2023/06/11 05:04:53;;;;;;;6.88;5.13;;;;;;;19.61;54.10;93375.19;4973957;28;20038;-72
2023/06/11 05:07:20;;;;;;;6.32;5.72;;;;;;;19.47;54.82;93371.66;4972077;28;20172;-74
2023/06/11 05:09:46;;;;;;;8.25;4.93;;;;;;;19.52;54.98;93369.38;4976144;28;20159;-74
2023/06/11 05:12:12;;;;;;;5.50;4.88;;;;;;;19.43;54.86;93382.41;4974386;28;20042;-72
2023/06/11 05:14:37;;;;;;;6.55;5.63;;;;;;;19.56;55.23;93386.34;4977629;28;20141;-74
2023/06/11 05:17:03;;;;;;;8.18;5.10;;;;;;;19.31;55.56;93345.00;4976506;28;20628;-73
2023/06/11 05:19:29;;;;;;;6.18;5.32;;;;;;;19.58;55.23;93388.66;4978010;28;20244;-72
2023/06/11 05:21:55;;;;;;;9.18;5.70;;;;;;;19.45;54.90;93385.53;4993488;28;20037;-72
2023/06/11 05:24:20;;;;;;;7.60;5.20;;;;;;;19.42;54.75;93367.38;4976164;28;20393;-73
2023/06/11 05:26:46;;;;;;;5.97;4.50;;;;;;;19.61;54.84;93395.97;4977058;28;20085;-74
2023/06/11 05:29:12;;;;;;;5.18;4.57;;;;;;;19.68;54.96;93401.41;4974541;28;20046;-73
2023/06/11 05:31:38;;;;;;;5.28;4.60;;;;;;;19.48;54.13;93402.88;4975233;28;20493;-73
2023/06/11 05:34:04;;;;;;;10.55;5.45;;;;;;;19.48;54.07;93395.56;4974478;28;20516;-73
2023/06/11 05:36:31;;;;;;;6.35;4.82;;;;;;;19.44;54.01;93377.78;4973733;28;20520;-72
2023/06/11 05:38:56;;;;;;;8.45;4.97;;;;;;;19.71;53.67;93409.50;4977187;28;20367;-73
2023/06/11 05:41:22;;;;;;;7.82;4.97;;;;;;;19.48;53.78;93395.56;4956965;28;20416;-73
2023/06/11 05:43:48;;;;;;;7.38;5.15;;;;;;;19.78;52.74;93408.78;4971741;28;20415;-75
2023/06/11 05:46:14;;;;;;;8.40;4.93;;;;;;;19.71;53.74;93406.03;4973465;28;20029;-72
2023/06/11 05:48:41;;;;;;;23.92;5.97;;;;;;;19.68;53.46;93388.69;4988462;28;20108;-74
2023/06/11 05:51:06;;;;;;;8.15;5.60;;;;;;;19.73;53.46;93409.91;4971409;28;20038;-73
2023/06/11 05:53:32;;;;;;;6.82;4.28;;;;;;;19.77;53.84;93411.84;4972481;28;20054;-73
2023/06/11 05:56:02;;;;;;;5.75;5.00;;;;;;;19.74;53.73;93414.16;4970778;28;20441;-73
2023/06/11 05:58:27;;;;;;;6.00;5.40;;;;;;;19.94;53.92;93411.91;4971917;28;20030;-73
2023/06/11 06:00:54;;;;;;;7.45;5.13;;;;;;;19.80;54.55;93397.63;4971913;28;20034;-72
2023/06/11 06:03:19;;;;;;;8.98;5.40;;;;;;;19.24;55.93;93417.75;4971209;28;20042;-73
2023/06/11 06:05:44;;;;;;;11.52;5.97;;;;;;;19.57;55.42;93398.66;4973874;28;20405;-73
2023/06/11 06:08:11;;;;;;;8.77;6.55;;;;;;;;;;4971520;28;20046;-74
2023/06/11 06:10:36;;;;;;;7.28;6.30;;;;;;;19.87;54.43;93401.09;4972923;28;20755;-74
2023/06/11 06:13:02;;;;;;;10.57;5.97;;;;;;;20.02;54.37;93410.78;4962245;28;20844;-74
2023/06/11 06:15:27;;;;;;;9.45;5.80;;;;;;;19.85;54.89;93419.56;4956411;28;20101;-73
2023/06/11 06:17:53;;;;;;;7.25;5.43;;;;;;;19.56;55.67;93407.91;4969921;28;20034;-73
2023/06/11 06:20:18;;;;;;;7.45;5.43;;;;;;;19.65;56.32;93407.59;4965746;28;20046;-73
2023/06/11 06:22:43;;;;;;;10.30;6.10;;;;;;;19.61;57.16;93402.16;4971353;28;20552;-74
2023/06/11 06:25:09;;;;;;;7.00;5.25;;;;;;;19.81;55.83;93401.84;4970859;28;20996;-75
2023/06/11 06:27:34;;;;;;;11.23;6.18;;;;;;;19.54;54.60;93409.44;4967110;28;20100;-73
2023/06/11 06:30:01;;;;;;;8.02;5.63;;;;;;;19.85;55.04;93418.84;4970450;28;20397;-74
2023/06/11 06:32:28;;;;;;;9.27;5.32;;;;;;;20.09;54.28;93415.44;4970222;28;20911;-72
2023/06/11 06:34:53;;;;;;;6.82;6.13;;;;;;;20.24;53.65;93398.09;4972724;28;20062;-74
2023/06/11 06:37:18;;;;;;;8.25;5.85;;;;;;;20.37;53.38;93406.63;4971693;28;20121;-74
2023/06/11 06:39:44;;;;;;;7.25;5.00;;;;;;;20.38;53.00;93408.94;4972371;28;20485;-72
2023/06/11 06:42:10;;;;;;;8.30;5.57;;;;;;;20.35;52.13;93403.53;4968597;28;20100;-72
2023/06/11 06:44:35;;;;;;;7.60;5.30;;;;;;;20.36;52.18;93403.16;4970332;28;20412;-73
2023/06/11 06:47:01;;;;;;;7.13;5.57;;;;;;;20.44;53.12;93412.78;4973631;28;20042;-74
2023/06/11 06:49:26;;;;;;;11.18;6.65;;;;;;;19.99;52.68;93413.47;4969040;28;20037;-72
2023/06/11 06:51:52;;;;;;;8.65;5.25;;;;;;;19.89;53.42;93398.03;4986447;28;20609;-73
2023/06/11 06:54:17;;;;;;;8.65;6.22;;;;;;;20.25;52.99;93402.34;4972849;28;20051;-73
2023/06/11 06:56:42;;;;;;;6.47;5.60;;;;;;;20.14;53.34;93393.47;4972989;28;20648;-73
2023/06/11 06:59:08;;;;;;;7.85;5.82;;;;;;;20.22;52.84;93410.47;4974340;28;20288;-73
2023/06/11 07:01:33;;;;;;;8.68;5.60;;;;;;;20.39;52.76;93399.66;4960123;28;20372;-73
2023/06/11 07:03:59;;;;;;;7.40;6.13;;;;;;;20.34;53.19;93396.56;4973136;28;20666;-70
2023/06/11 07:06:25;;;;;;;7.82;6.07;;;;;;;20.01;52.46;93405.75;4971834;28;20190;-73
2023/06/11 07:08:51;;;;;;;7.18;6.00;;;;;;;20.02;52.42;93369.50;4973726;28;20034;-73
2023/06/11 07:11:17;;;;;;;9.68;6.03;;;;;;;20.38;52.09;93403.56;4968062;28;20050;-74
2023/06/11 07:13:42;;;;;;;7.22;5.88;;;;;;;20.53;52.60;93407.03;4971566;28;20136;-72
2023/06/11 07:16:08;;;;;;;7.72;6.22;;;;;;;20.37;52.78;93403.94;4972657;28;20118;-73
2023/06/11 07:18:33;;;;;;;8.23;5.82;;;;;;;20.32;53.36;93399.69;4974030;28;20045;-73
2023/06/11 07:20:59;;;;;;;6.25;5.28;;;;;;;20.37;53.29;93390.41;4965058;28;20050;-73
2023/06/11 07:23:25;;;;;;;9.25;5.43;;;;;;;20.44;52.60;93396.59;4973909;28;20065;-72
2023/06/11 07:25:51;;;;;;;6.15;5.35;;;;;;;20.46;53.58;93399.69;4971066;28;20145;-73
2023/06/11 07:28:16;;;;;;;6.35;5.68;;;;;;;20.62;53.25;93401.25;4972780;28;22584;-73
2023/06/11 07:30:42;;;;;;;8.68;6.43;;;;;;;20.58;51.80;93393.88;4964470;28;20038;-73
2023/06/11 07:33:08;;;;;;;8.52;6.28;;;;;;;20.28;53.41;93388.09;4972941;28;20582;-74
2023/06/11 07:35:33;;;;;;;11.98;6.25;;;;;;;20.68;53.51;93399.69;4972937;28;20054;-71
2023/06/11 07:37:59;;;;;;;7.85;6.15;;;;;;;20.76;54.21;93402.00;4964760;28;20547;-73
2023/06/11 07:40:24;;;;;;;7.05;5.38;;;;;;;21.06;52.99;93393.50;4963957;28;20146;-73
2023/06/11 07:42:50;;;;;;;6.82;6.18;;;;;;;21.11;53.02;93390.41;4967492;28;20057;-72
2023/06/11 07:45:15;;;;;;;11.68;5.97;;;;;;;21.28;53.64;93383.41;4963236;28;20847;-74
2023/06/11 07:47:41;;;;;;;13.77;5.82;;;;;;;21.36;52.28;93371.44;4967166;28;20234;-73
2023/06/11 07:50:08;;;;;;;11.02;6.03;;;;;;;21.60;50.19;93383.34;4969095;28;20045;-73
2023/06/11 07:52:34;;;;;;;8.18;5.88;;;;;;;21.56;50.63;93388.75;4965708;28;20092;-72
2023/06/11 07:55:00;;;;;;;15.20;5.97;;;;;;;21.63;49.16;93377.91;4966524;28;20385;-74
2023/06/11 07:57:25;;;;;;;9.90;5.80;;;;;;;21.51;47.77;93375.59;4966157;28;20692;-72
2023/06/11 07:59:52;;;;;;;6.32;5.20;;;;;;;21.38;48.88;93377.97;4966127;28;20034;-72
2023/06/11 08:02:17;;;;;;;8.18;5.20;;;;;;;21.46;47.98;93368.66;4964803;28;20046;-74
2023/06/11 08:04:43;;;;;;;11.55;5.70;;;;;;;21.39;47.32;93349.78;4966014;28;20095;-72
2023/06/11 08:07:08;;;;;;;9.85;5.90;;;;;;;21.33;48.41;93380.31;4966795;28;20108;-73
2023/06/11 08:09:35;;;;;;;9.02;5.20;;;;;;;21.34;48.59;93365.63;4965255;28;20118;-72
2023/06/11 08:12:05;;;;;;;9.60;5.78;;;;;;;21.24;48.68;93383.44;4965095;28;20053;-72
2023/06/11 08:14:32;;;;;;;6.75;5.47;;;;;;;21.37;46.16;93376.44;4966627;28;20038;-72
2023/06/11 08:16:58;;;;;;;7.88;5.57;;;;;;;21.51;46.08;93378.31;4966254;28;20311;-74
2023/06/11 08:19:23;;;;;;;6.28;5.47;;;;;;;21.36;47.34;93366.75;4962248;28;20026;-73
2023/06/11 08:21:49;;;;;;;10.15;5.28;;;;;;;21.39;48.21;93367.94;4968768;28;20023;-73
2023/06/11 08:24:16;;;;;;;11.18;5.88;;;;;;;21.49;47.79;93359.00;4965780;28;20222;-72
2023/06/11 08:26:42;;;;;;;6.70;5.22;;;;;;;21.25;45.94;93362.56;4966410;28;20535;-72
2023/06/11 08:29:07;;;;;;;11.18;5.53;;;;;;;20.88;45.58;93376.53;4962478;28;20110;-72
2023/06/11 08:31:33;;;;;;;7.43;5.93;;;;;;;20.67;46.43;93357.63;4966740;28;20026;-72
2023/06/11 08:33:58;;;;;;;7.78;5.10;;;;;;;20.71;47.74;93367.28;4965980;28;20030;-72
2023/06/11 08:36:25;;;;;;;8.93;4.80;;;;;;;20.81;47.95;93360.31;4979387;28;20659;-73
2023/06/11 08:38:51;;;;;;;9.55;5.70;;;;;;;20.97;48.39;93369.56;4966825;28;20524;-73
2023/06/11 08:41:16;;;;;;;12.05;6.20;;;;;;;20.94;48.98;93361.47;4967650;28;20085;-72
2023/06/11 08:43:41;;;;;;;7.90;5.45;;;;;;;21.13;48.22;93366.44;4965104;28;20030;-72
2023/06/11 08:46:16;;;;;;;7.10;5.32;;;;;;;21.20;47.25;93361.03;4973456;28;20060;-73
2023/06/11 08:48:45;;;;;;;6.13;5.45;;;;;;;21.00;47.45;93365.31;4983486;28;20270;-73
2023/06/11 08:51:11;;;;;;;8.43;5.95;;;;;;;20.82;47.92;93368.03;4971494;28;20141;-73
2023/06/11 08:53:37;;;;;;;6.90;5.75;;;;;;;20.81;48.51;93381.94;4978046;28;20049;-73
2023/06/11 08:56:05;;;;;;;8.73;5.50;;;;;;;21.11;47.14;93374.19;4976354;28;20125;-74
2023/06/11 08:58:33;;;;;;;5.00;4.50;;;;;;;21.39;46.40;93371.41;4978752;28;20053;-72
2023/06/11 09:01:07;;;;;;;6.70;4.78;;;;;;;21.55;45.84;93359.41;4979061;28;20022;-73
2023/06/11 09:03:33;;;;;;;7.18;5.47;;;;;;;21.65;45.94;93364.78;4977883;28;20100;-73
2023/06/11 09:05:59;;;;;;;14.00;5.60;;;;;;;21.35;46.20;93367.94;4976606;28;20046;-71
2023/06/11 09:08:24;;;;;;;5.88;5.28;;;;;;;21.23;46.21;93354.84;4977306;28;20100;-72
2023/06/11 09:10:51;;;;;;;7.93;5.72;;;;;;;21.28;46.37;93353.66;4978109;28;20516;-73
2023/06/11 09:13:17;;;;;;;5.97;5.18;;;;;;;21.38;46.41;93366.38;4983994;28;20050;-72
2023/06/11 09:15:48;;;;;;;9.32;5.07;;;;;;;21.32;45.89;93351.72;4974047;28;20503;-73
2023/06/11 09:18:19;;;;;;;11.50;6.43;;;;;;;21.30;46.04;93352.13;4977643;28;20692;-72
2023/06/11 09:20:48;;;;;;;7.15;5.28;;;;;;;21.29;46.87;93353.28;4973704;28;20496;-73
2023/06/11 09:23:23;;;;;;;8.30;4.82;;;;;;;21.45;46.43;93350.91;4977903;28;20041;-73
2023/06/11 09:25:49;;;;;;;6.93;5.03;;;;;;;21.57;45.68;93343.53;4977044;28;20416;-73
2023/06/11 09:28:14;;;;;;;8.95;5.35;;;;;;;21.62;45.80;93338.47;4975581;28;20053;-73
2023/06/11 09:30:40;;;;;;;6.38;5.13;;;;;;;21.61;44.91;93341.59;4975338;28;20113;-73
2023/06/11 09:33:15;;;;;;;6.88;5.28;;;;;;;21.60;44.40;93324.59;4975902;28;20058;-72
2023/06/11 09:35:46;;;;;;;;;;;;;;;21.40;46.10;93345.91;4978334;28;20399;-72
2023/06/11 09:38:15;;;;;;;7.63;5.15;;;;;;;21.31;46.79;93345.56;4993574;28;20424;-73
2023/06/11 09:40:45;;;;;;;8.98;5.35;;;;;;;21.60;49.20;93348.94;4979705;28;20038;-73
2023/06/11 09:43:11;;;;;;;8.23;5.00;;;;;;;21.88;44.55;93343.38;4978542;28;20038;-73
2023/06/11 09:45:37;;;;;;;5.20;4.28;;;;;;;21.95;43.97;93350.66;4979540;28;20042;-73
2023/06/11 09:48:04;;;;;;;7.43;4.97;;;;;;;21.91;43.39;93328.28;4978133;28;20042;-73
2023/06/11 09:50:32;;;;;;;7.47;4.03;;;;;;;21.94;42.82;93337.56;4979936;28;20041;-73
2023/06/11 09:53:02;;;;;;;9.93;4.50;;;;;;;21.78;42.49;93338.03;4977029;28;20038;-73
2023/06/11 09:55:35;;;;;;;10.85;5.07;;;;;;;21.96;42.91;93335.97;4978694;28;20561;-73
2023/06/11 09:58:01;;;;;;;7.03;5.45;;;;;;;22.08;40.85;93326.63;4975615;28;20023;-74
2023/06/11 10:00:27;;;;;;;11.05;5.47;;;;;;;22.02;42.20;93328.97;4975553;28;20030;-74
2023/06/11 10:02:53;;;;;;;9.88;6.20;;;;;;;21.88;41.10;93305.47;4974385;28;20863;-73
2023/06/11 10:05:19;;;;;;;8.57;5.05;;;;;;;22.06;41.48;93328.94;4975190;28;20041;-73
2023/06/11 10:07:50;;;;;;;9.90;6.18;;;;;;;22.03;41.37;93333.25;4973169;28;20045;-73
2023/06/11 10:10:21;;;;;;;6.40;5.15;;;;;;;21.74;38.54;93313.69;4975726;28;20033;-72
2023/06/11 10:12:51;;;;;;;7.07;5.43;;;;;;;21.87;39.33;93319.41;4974699;28;20045;-74
2023/06/11 10:15:17;;;;;;;8.68;6.03;;;;;;;21.52;39.53;93295.97;4975487;28;20034;-73
2023/06/11 10:17:51;;;;;;;9.00;5.72;;;;;;;21.91;39.44;93325.56;4975807;28;20042;-73
2023/06/11 10:20:28;;;;;;;10.48;6.15;;;;;;;21.86;40.08;93310.50;4988601;28;20047;-72
2023/06/11 10:23:11;;;;;;;8.40;5.88;;;;;;;21.76;40.98;93305.16;4974673;28;20038;-73
2023/06/11 10:25:40;;;;;;;11.65;5.47;;;;;;;21.62;41.38;93305.25;4974243;28;20052;-73
2023/06/11 10:28:07;;;;;;;7.63;6.07;;;;;;;21.66;42.20;93316.81;4972927;28;20046;-73
2023/06/11 10:30:32;;;;;;;12.45;6.72;;;;;;;21.62;43.54;93305.25;4974563;28;20339;-73
2023/06/11 10:32:59;;;;;;;6.65;5.20;;;;;;;21.62;42.50;93291.72;4972121;28;20508;-73
2023/06/11 10:35:28;;;;;;;6.32;5.40;;;;;;;21.72;41.80;93272.72;4971593;28;20070;-73
2023/06/11 10:38:05;;;;;;;8.60;6.15;;;;;;;21.95;42.69;93296.53;4974451;28;20053;-72
2023/06/11 10:40:35;;;;;;;6.30;5.10;;;;;;;22.28;41.64;93287.81;4983042;28;20791;-72
2023/06/11 10:43:04;;;;;;;8.57;5.78;;;;;;;22.07;41.28;93277.13;4974310;28;20424;-73
2023/06/11 10:45:36;;;;;;;10.23;6.78;;;;;;;22.07;39.74;93287.19;4976996;28;20037;-74
2023/06/11 10:48:02;;;;;;;8.55;5.18;;;;;;;22.14;40.10;93282.50;4973084;28;20327;-72
2023/06/11 10:50:31;;;;;;;9.65;5.75;;;;;;;22.19;40.90;93287.44;4974727;28;20033;-72
2023/06/11 10:53:06;;;;;;;8.82;6.00;;;;;;;22.49;42.85;93291.50;4972181;28;20046;-74
2023/06/11 10:55:34;;;;;;;7.50;6.70;;;;;;;22.55;39.48;93279.84;4975138;28;20081;-73
2023/06/11 10:58:01;;;;;;;8.57;6.20;;;;;;;22.22;41.24;93284.00;4972427;28;20275;-72
2023/06/11 11:00:32;;;;;;;10.40;6.15;;;;;;;22.25;39.50;93272.34;4973623;28;20035;-72
2023/06/11 11:02:59;;;;;;;6.32;5.68;;;;;;;22.09;41.06;93282.16;4971266;28;20409;-73
2023/06/11 11:05:28;;;;;;;6.38;5.35;;;;;;;22.17;42.07;93283.63;4975581;28;20034;-73
2023/06/11 11:07:53;;;;;;;6.63;5.20;;;;;;;22.38;41.16;93264.53;4971822;28;20078;-74
2023/06/11 11:10:23;;;;;;;8.15;4.78;;;;;;;22.40;41.07;93283.06;4983847;28;20023;-74
2023/06/11 11:12:49;;;;;;;8.18;5.45;;;;;;;22.47;42.26;93269.47;4973567;28;20065;-73
2023/06/11 11:15:15;;;;;;;9.52;5.30;;;;;;;22.39;40.86;93268.75;4974750;28;20050;-72
2023/06/11 11:17:42;;;;;;;5.88;5.30;;;;;;;22.30;40.45;93285.47;4972740;28;20548;-73
2023/06/11 11:20:13;;;;;;;8.25;5.05;;;;;;;22.34;40.52;93290.09;4974184;28;20054;-72
2023/06/11 11:22:39;;;;;;;11.73;6.18;;;;;;;22.34;40.45;93263.03;4987299;28;20161;-73
2023/06/11 11:25:06;;;;;;;8.35;5.55;;;;;;;22.63;41.27;93275.88;4975453;28;20092;-72
2023/06/11 11:27:33;;;;;;;10.02;5.10;;;;;;;22.53;40.44;93281.41;4974272;28;20097;-73
2023/06/11 11:30:01;;;;;;;7.32;4.90;;;;;;;22.48;40.13;93277.22;4975739;28;20066;-72
2023/06/11 11:32:31;;;;;;;9.80;5.00;;;;;;;22.09;42.42;93277.50;4977056;28;20034;-72